To NAV CANADA Home Page Login to a new session Search on AWWS site Feedback and Comments Disclaimer Vers la page française équivalente Tips FAQ What's new on the site To the Forecasts and Observations / NOTAM section To "File a Flight Plan" website Publications and other links Update of the User's profile FIC Telephone Numbers My Weather Data Folder Route Weather Data Regional Weather Data Local Weather Data To the Forecasts and Observations / NOTAM section
Request Generated 01/21/2017 at 02:05:46 UTC . Weather information available at that time is displayed.

METAR/TAF

RED DEER REGIONAL/AB    

METAR CYQF 210200Z VRB02KT 15SM SKC M03/M08 A2931 RMK SLP976=
METAR CYQF 210100Z 13002KT 15SM SKC M02/M07 A2930 RMK SLP973=
METAR CYQF 210000Z 05002KT 15SM FEW250 M02/M08 A2930 RMK CI1 SLP968=

TAF CYQF 202348Z 2100/2112 VRB03KT P6SM FEW250
BECMG 2103/2105 12004KT
FM211000 12004KT P6SM SCT250 PROB40 2110/2112 1/2SM FZFG VV004
RMK NXT FCST BY 210600Z=
Your time UTC time
Weather data provided by Environment Canada and NAV CANADA